Atlantic - Newfoundland: Past 24 Hour Conditions

 

Chevery

08:00 AM AST 28 January 2015
Disclaimer

This table is a summary of hourly weather conditions for the past 24 hours.
Please note that these observations might not always be representative of weather conditions over their associated marine area.

Date / Time
(AST)
Wind(knots) Conditions Visibility(km) Pressure(kPa) Air tempC) Relative humidity(%) Dew pointC) Wind Chill
28 January 2015
8:00 NNE 24 gust 30 N/A N/A 101.0 -13 90 -14 -25
7:00 NNE 23 gust 30 N/A N/A 101.1 -14 90 -15 -26
6:00 NNE 23 gust 29 N/A N/A 101.1 -14 90 -15 -26
5:00 NNE 25 gust 30 N/A N/A 101.1 -14 90 -15 -27
4:00 NNE 24 gust 33 N/A N/A 101.3 -14 90 -15 -27
3:00 NNE 26 gust 34 N/A N/A 101.3 -15 89 -16 -28
2:00 NNE 26 N/A N/A 101.6 -15 89 -17 -28
1:00 NNE 24 gust 32 N/A N/A 101.7 -15 88 -17 -28
0:00 NNE 27 gust 34 N/A N/A 101.9 -15 88 -17 -29
27 January 2015
23:00 NNE 25 N/A N/A 102.0 -15 87 -17 -29
22:00 NNE 25 gust 31 N/A N/A 102.1 -16 88 -18 -29
21:00 NNE 22 gust 30 N/A N/A 102.2 -16 88 -18 -29
20:00 NNE 23 gust 29 N/A N/A 102.3 -17 87 -19 -30
19:00 NNE 17 gust 24 N/A N/A 102.5 -17 86 -19 -29
18:00 NNE 18 gust 24 N/A N/A 102.4 -18 81 -21 -31
17:00 NNE 17 gust 24 N/A N/A 102.5 -18 64 -24 -31
16:00 NNE 19 N/A N/A 102.8 -19 59 -25 -32
15:00 NNE 17 N/A N/A 102.8 -19 61 -24 -31
14:00 NNE 14 N/A N/A 102.9 -19 62 -25 -31
13:00 NNE 17 N/A N/A 103.1 -20 59 -26 -33
12:00 NNE 13 N/A N/A 103.3 -22 64 -27 -34
11:00 NE 12 N/A N/A 103.6 -23 61 -28 -35
10:00 NNE 9 N/A N/A 103.5 -25 63 -30 -35
9:00 NNE 8 N/A N/A 103.6 -26 66 -30 -36
8:00 NNE 8 N/A N/A 103.5 -26 65 -31 -37
Map of Atlantic - Newfoundland marine weather areas Southwestern Grand Banks - 44138 Banquereau - 44139 Tail of the Bank - 44140 Nickerson Bank - 44251 Northeast Burgeo Bank - 44255 Blanc-Sablon Airport Cap Whittle Chevery Natashquan Airport Heath Point Miscou Island Grand Étang Ingonish Beach North Mountain St.Paul Island J.A. Douglas McCurdy Sydney Airport Charlottetown Airport East Point North Cape Argentia Bonavista Burgeo Cape Race Corner Brook Daniel's Harbour Englee Ferolle Point La Scie Port aux Basques Rocky Harbour Sagona Island St. Anthony Airport St. John's Int'l Airport St. Lawrence Stephenville Airport Twillingate Winterland Wreckhouse Cartwright Airport Mary's Harbour Grates Cove Pool's Island Marticot Island Long Pond Îles de la Madeleine Airport
Legend:
buoy Buoy
land station Land Station

Atlantic - Newfoundland Area

Another Region

What we are doing

Date modified: